createdAt,value
2023-05-22T00:02:06.990Z,34.67
2023-05-22T00:04:33.846Z,31.38
2023-05-22T00:07:00.622Z,31.65
2023-05-22T00:09:27.346Z,31.17
2023-05-22T00:11:54.096Z,33.22
2023-05-22T00:14:20.859Z,32.45
2023-05-22T00:16:48.470Z,35.85
2023-05-22T00:19:17.358Z,33.17
2023-05-22T00:21:44.655Z,38.35
2023-05-22T00:24:11.425Z,31.88
2023-05-22T00:26:38.209Z,34.47
2023-05-22T00:29:07.635Z,35.30
2023-05-22T00:31:34.493Z,33.85
2023-05-22T00:34:01.309Z,31.88
2023-05-22T00:36:28.092Z,30.48
2023-05-22T00:38:54.861Z,31.73
2023-05-22T00:41:22.214Z,33.00
2023-05-22T00:43:50.943Z,35.25
2023-05-22T00:46:21.601Z,33.45
2023-05-22T00:48:49.122Z,34.47
2023-05-22T00:51:16.020Z,35.03
2023-05-22T00:53:43.615Z,35.60
2023-05-22T00:56:10.542Z,36.10
2023-05-22T00:58:37.580Z,33.80
2023-05-22T01:01:07.007Z,33.83
2023-05-22T01:03:33.888Z,35.17
2023-05-22T01:06:01.184Z,36.38
2023-05-22T01:08:27.961Z,33.72
2023-05-22T01:11:08.201Z,37.05
2023-05-22T01:13:54.525Z,37.63
2023-05-22T01:16:34.635Z,37.30
2023-05-22T01:19:38.153Z,35.20
2023-05-22T01:23:08.871Z,36.15
2023-05-22T01:25:35.603Z,39.58
2023-05-22T01:28:48.797Z,36.38
2023-05-22T01:31:20.035Z,35.97
2023-05-22T01:33:50.823Z,37.10
2023-05-22T01:36:22.495Z,36.67
2023-05-22T01:38:49.653Z,44.33
2023-05-22T01:41:16.611Z,38.28
2023-05-22T01:43:44.249Z,38.17
2023-05-22T01:46:11.225Z,35.67
2023-05-22T01:48:38.055Z,39.10
2023-05-22T01:52:03.423Z,38.78
2023-05-22T01:54:45.386Z,37.65
2023-05-22T01:57:24.981Z,36.83
2023-05-22T02:00:09.726Z,37.17
2023-05-22T02:03:23.676Z,50.10
2023-05-22T02:05:54.757Z,38.90
2023-05-22T02:08:21.922Z,37.92
2023-05-22T02:10:50.035Z,40.95
2023-05-22T02:13:16.994Z,37.50
2023-05-22T02:15:46.740Z,38.97
2023-05-22T02:18:13.872Z,36.78
2023-05-22T02:20:42.304Z,41.83
2023-05-22T02:23:09.349Z,38.17
2023-05-22T02:25:36.132Z,35.55
2023-05-22T02:28:03.333Z,38.47
2023-05-22T02:30:30.300Z,35.22
2023-05-22T02:33:00.331Z,36.60
2023-05-22T02:35:27.295Z,38.65
2023-05-22T02:37:54.384Z,33.80
2023-05-22T02:40:21.291Z,37.65
2023-05-22T02:42:48.095Z,35.70
2023-05-22T02:45:15.664Z,35.30
2023-05-22T02:47:42.648Z,31.10
2023-05-22T02:50:09.854Z,32.22
2023-05-22T02:52:37.212Z,32.15
2023-05-22T02:55:04.702Z,34.97
2023-05-22T02:57:31.919Z,32.53
2023-05-22T02:59:59.335Z,31.08
2023-05-22T03:02:28.506Z,32.60
2023-05-22T03:04:55.604Z,30.17
2023-05-22T03:07:22.414Z,34.67
2023-05-22T03:09:49.213Z,32.45
2023-05-22T03:12:16.228Z,30.98
2023-05-22T03:14:43.075Z,32.10
2023-05-22T03:17:09.879Z,31.95
2023-05-22T03:19:36.773Z,32.65
2023-05-22T03:22:03.874Z,29.85
2023-05-22T03:24:32.244Z,27.17
2023-05-22T03:27:00.650Z,30.05
2023-05-22T03:29:36.406Z,34.67
2023-05-22T03:32:03.904Z,26.13
2023-05-22T03:34:32.207Z,29.83
2023-05-22T03:37:00.409Z,31.08
2023-05-22T03:39:27.207Z,32.65
2023-05-22T03:42:01.538Z,31.33
2023-05-22T03:44:29.265Z,34.30
2023-05-22T03:46:56.264Z,33.10
2023-05-22T03:49:23.088Z,34.53
2023-05-22T03:51:50.030Z,32.38
2023-05-22T03:54:16.925Z,36.10
2023-05-22T03:56:43.892Z,34.55
2023-05-22T03:59:10.726Z,34.28
2023-05-22T04:01:39.121Z,36.55
2023-05-22T04:04:06.170Z,37.05
2023-05-22T04:06:33.153Z,34.45
2023-05-22T04:09:01.081Z,36.83
2023-05-22T04:11:30.422Z,36.13
2023-05-22T04:13:57.395Z,38.13
2023-05-22T04:16:24.271Z,39.47
2023-05-22T04:18:51.218Z,36.80
2023-05-22T04:21:19.073Z,35.42
2023-05-22T04:23:45.996Z,35.72
2023-05-22T04:26:13.207Z,35.85
2023-05-22T04:28:40.521Z,36.05
2023-05-22T04:31:07.597Z,35.00
2023-05-22T04:33:34.866Z,34.22
2023-05-22T04:36:02.729Z,35.53
2023-05-22T04:38:29.684Z,36.80
2023-05-22T04:40:57.114Z,37.90
2023-05-22T04:43:26.815Z,35.13
2023-05-22T04:45:54.965Z,34.45
2023-05-22T04:48:23.045Z,35.28
2023-05-22T04:50:50.492Z,38.10
2023-05-22T04:53:17.571Z,38.55
2023-05-22T04:55:44.373Z,38.58
2023-05-22T04:58:11.243Z,34.47
2023-05-22T05:00:38.582Z,34.88
2023-05-22T05:03:08.065Z,35.20
2023-05-22T05:05:35.173Z,36.75
2023-05-22T05:08:02.412Z,36.92
2023-05-22T05:10:29.216Z,37.85
2023-05-22T05:12:56.602Z,36.72
2023-05-22T05:15:23.931Z,36.88
2023-05-22T05:17:51.494Z,37.05
2023-05-22T05:20:18.462Z,37.95
2023-05-22T05:22:46.189Z,37.85
2023-05-22T05:25:14.363Z,37.03
2023-05-22T05:27:41.441Z,35.83
2023-05-22T05:30:10.687Z,38.28
2023-05-22T05:32:56.274Z,38.30
2023-05-22T05:35:36.244Z,38.65
2023-05-22T05:38:07.941Z,38.80
2023-05-22T05:40:35.686Z,40.85
2023-05-22T05:43:03.599Z,39.13
2023-05-22T05:45:30.742Z,40.92
2023-05-22T05:47:58.356Z,42.08
2023-05-22T05:50:25.238Z,45.20
2023-05-22T05:52:52.108Z,40.55
2023-05-22T05:55:19.698Z,39.78
2023-05-22T05:57:47.739Z,42.80
2023-05-22T06:02:51.150Z,41.85
2023-05-22T06:05:36.901Z,41.45
2023-05-22T06:08:16.263Z,42.63
2023-05-22T06:10:43.070Z,36.47
2023-05-22T06:13:13.441Z,42.85
2023-05-22T06:15:41.218Z,44.53
2023-05-22T06:18:08.133Z,45.28
2023-05-22T06:20:36.761Z,47.10
2023-05-22T06:23:03.690Z,43.40
2023-05-22T06:25:30.505Z,45.92
2023-05-22T06:27:58.310Z,47.42
2023-05-22T06:30:38.936Z,49.05
2023-05-22T06:33:10.179Z,42.58
2023-05-22T06:35:37.293Z,45.72
2023-05-22T06:38:05.205Z,42.85
2023-05-22T06:40:32.758Z,43.78
2023-05-22T06:43:07.835Z,46.72
2023-05-22T06:45:43.663Z,44.40
2023-05-22T06:48:23.088Z,42.40
2023-05-22T06:51:12.682Z,44.25
2023-05-22T06:53:41.061Z,42.58
2023-05-22T06:56:13.435Z,44.65
2023-05-22T06:58:51.538Z,42.05
2023-05-22T07:01:20.178Z,44.38
2023-05-22T07:04:05.352Z,43.15
2023-05-22T07:06:39.161Z,45.50
2023-05-22T07:09:06.895Z,45.10
2023-05-22T07:11:35.965Z,42.35
2023-05-22T07:14:03.294Z,43.63
2023-05-22T07:16:31.323Z,44.90
2023-05-22T07:18:58.692Z,44.20
2023-05-22T07:21:26.222Z,44.42
2023-05-22T07:23:55.278Z,44.03
2023-05-22T07:26:23.239Z,44.38
2023-05-22T07:29:01.103Z,47.85
2023-05-22T07:31:28.460Z,47.25
2023-05-22T07:33:55.998Z,45.75
2023-05-22T07:36:22.919Z,41.15
2023-05-22T07:38:49.713Z,43.35
2023-05-22T07:41:17.699Z,39.40
2023-05-22T07:43:44.853Z,44.63
2023-05-22T07:46:17.133Z,44.47
2023-05-22T07:48:55.647Z,44.10
2023-05-22T07:51:22.534Z,46.95
2023-05-22T07:53:51.438Z,45.72
2023-05-22T07:56:18.198Z,48.75
2023-05-22T07:58:48.380Z,45.78
2023-05-22T08:01:18.486Z,44.67
2023-05-22T08:03:45.450Z,44.13
2023-05-22T08:06:12.717Z,43.17
2023-05-22T08:08:39.591Z,44.60
2023-05-22T08:11:06.663Z,42.35
2023-05-22T08:13:33.763Z,44.17
2023-05-22T08:16:01.445Z,42.28
2023-05-22T08:18:29.795Z,41.85
2023-05-22T08:20:57.225Z,45.25
2023-05-22T08:23:24.112Z,44.95
2023-05-22T08:25:50.973Z,41.60
2023-05-22T08:28:17.774Z,38.10
2023-05-22T08:30:44.626Z,42.17
2023-05-22T08:33:12.220Z,42.50
2023-05-22T08:35:39.637Z,45.67
2023-05-22T08:38:06.491Z,44.78
2023-05-22T08:40:38.344Z,44.53
2023-05-22T08:43:06.602Z,48.13
2023-05-22T08:45:34.587Z,43.63
2023-05-22T08:48:06.376Z,47.45
2023-05-22T08:50:36.851Z,45.67
2023-05-22T08:53:06.654Z,45.05
2023-05-22T08:55:33.815Z,40.47
2023-05-22T08:58:00.884Z,41.92
2023-05-22T09:00:27.699Z,42.40
2023-05-22T09:02:55.767Z,42.47
2023-05-22T09:05:26.718Z,38.17
2023-05-22T09:07:56.581Z,43.58
2023-05-22T09:10:25.813Z,40.65
2023-05-22T09:13:04.793Z,42.25
2023-05-22T09:15:32.633Z,41.45
2023-05-22T09:18:00.531Z,43.33
2023-05-22T09:20:27.414Z,43.20
2023-05-22T09:22:54.240Z,41.95
2023-05-22T09:25:21.687Z,42.38
2023-05-22T09:27:49.239Z,43.42
2023-05-22T09:30:19.718Z,43.17
2023-05-22T09:32:48.833Z,47.10
2023-05-22T09:35:15.996Z,44.65
2023-05-22T09:37:42.944Z,41.80
2023-05-22T09:40:13.782Z,42.45
2023-05-22T09:42:44.738Z,45.47
2023-05-22T09:45:12.888Z,43.53
2023-05-22T09:47:40.383Z,44.10
2023-05-22T09:50:10.392Z,41.83
2023-05-22T09:52:38.145Z,44.33
2023-05-22T09:55:08.930Z,42.75
2023-05-22T09:57:44.350Z,41.42
2023-05-22T10:00:15.585Z,38.55
2023-05-22T10:02:46.673Z,40.35
2023-05-22T10:05:23.498Z,42.90
2023-05-22T10:07:57.431Z,45.90
2023-05-22T10:10:27.398Z,45.10
2023-05-22T10:13:01.917Z,43.60
2023-05-22T10:15:29.013Z,43.33
2023-05-22T10:17:56.590Z,43.08
2023-05-22T10:20:25.100Z,42.92
2023-05-22T10:22:54.790Z,42.30
2023-05-22T10:25:22.292Z,41.42
2023-05-22T10:27:53.088Z,39.67
2023-05-22T10:30:48.053Z,43.00
2023-05-22T10:33:41.626Z,42.92
2023-05-22T10:36:17.066Z,44.35
2023-05-22T10:38:52.972Z,42.00
2023-05-22T10:41:19.938Z,43.97
2023-05-22T10:43:49.723Z,42.38
2023-05-22T10:46:17.008Z,42.47
2023-05-22T10:48:48.705Z,42.40
2023-05-22T10:51:21.080Z,40.47
2023-05-22T10:53:53.536Z,42.97
2023-05-22T10:56:23.606Z,40.50
2023-05-22T10:59:04.882Z,43.05
2023-05-22T11:01:36.343Z,43.75
2023-05-22T11:04:16.078Z,41.00
2023-05-22T11:07:13.196Z,43.38
2023-05-22T11:09:49.880Z,45.63
2023-05-22T11:12:28.425Z,45.72
2023-05-22T11:15:08.718Z,44.33
2023-05-22T11:17:51.070Z,46.63
2023-05-22T11:23:01.057Z,46.58
2023-05-22T11:25:29.056Z,46.85
2023-05-22T11:27:56.590Z,44.38
2023-05-22T11:30:28.455Z,47.75
2023-05-22T11:32:55.443Z,43.83
2023-05-22T11:35:22.468Z,43.10
2023-05-22T11:37:51.337Z,44.05
2023-05-22T11:40:27.438Z,45.33
2023-05-22T11:42:54.471Z,42.85
2023-05-22T11:45:21.852Z,44.63
2023-05-22T11:47:49.125Z,46.83
2023-05-22T11:50:22.635Z,42.90
2023-05-22T11:52:56.692Z,43.22
2023-05-22T11:55:24.284Z,41.78
2023-05-22T11:57:51.066Z,38.83
2023-05-22T12:00:18.759Z,41.03
2023-05-22T12:02:48.892Z,41.25
2023-05-22T12:05:16.529Z,43.38
2023-05-22T12:07:43.673Z,42.92
2023-05-22T12:10:11.143Z,42.45
2023-05-22T12:12:38.685Z,43.08
2023-05-22T12:15:07.125Z,44.45
2023-05-22T12:17:37.166Z,42.35
2023-05-22T12:20:06.190Z,38.58
2023-05-22T12:22:33.082Z,43.00
2023-05-22T12:25:02.989Z,39.60
2023-05-22T12:27:33.355Z,42.33
2023-05-22T12:30:10.585Z,39.85
2023-05-22T12:32:37.508Z,45.78
2023-05-22T12:35:04.862Z,41.17
2023-05-22T12:37:34.013Z,45.83
2023-05-22T12:40:04.140Z,39.95
2023-05-22T12:42:31.176Z,45.95
2023-05-22T12:44:58.270Z,39.20
2023-05-22T12:47:25.885Z,36.90
2023-05-22T12:49:53.714Z,37.67
2023-05-22T12:52:21.030Z,47.78
2023-05-22T12:54:47.865Z,36.60
2023-05-22T12:57:16.737Z,41.55
2023-05-22T12:59:43.754Z,39.33
2023-05-22T13:02:10.771Z,41.00
2023-05-22T13:04:37.530Z,41.33
2023-05-22T13:07:04.362Z,43.10
2023-05-22T13:09:31.363Z,40.10
2023-05-22T13:11:58.255Z,41.55
2023-05-22T13:14:25.147Z,39.53
2023-05-22T13:16:51.989Z,45.22
2023-05-22T13:19:18.790Z,42.35
2023-05-22T13:21:45.841Z,41.35
2023-05-22T13:24:12.715Z,43.47
2023-05-22T13:26:39.471Z,44.97
2023-05-22T13:29:06.542Z,40.53
2023-05-22T13:31:37.222Z,42.40
2023-05-22T13:34:04.850Z,46.45
2023-05-22T13:36:31.940Z,37.80
2023-05-22T13:38:58.984Z,41.22
2023-05-22T13:41:25.987Z,40.92
2023-05-22T13:43:52.858Z,37.28
2023-05-22T13:46:21.450Z,39.15
2023-05-22T13:48:48.520Z,41.85
2023-05-22T13:51:15.601Z,38.55
2023-05-22T13:53:42.397Z,39.70
2023-05-22T13:56:09.266Z,38.25
2023-05-22T13:58:36.160Z,39.72
2023-05-22T14:01:03.017Z,36.03
2023-05-22T14:03:30.322Z,38.35
2023-05-22T14:05:57.262Z,37.40
2023-05-22T14:08:24.756Z,37.10
2023-05-22T14:10:51.612Z,39.13
2023-05-22T14:13:18.544Z,38.55
2023-05-22T14:15:47.033Z,40.50
2023-05-22T14:18:16.350Z,36.40
2023-05-22T14:20:44.566Z,38.22
2023-05-22T14:23:12.930Z,36.88
2023-05-22T14:25:43.291Z,36.95
2023-05-22T14:28:11.373Z,34.85
2023-05-22T14:30:39.916Z,38.50
2023-05-22T14:33:07.389Z,38.08
2023-05-22T14:35:34.303Z,37.70
2023-05-22T14:38:01.896Z,36.78
2023-05-22T14:40:28.834Z,37.22
2023-05-22T14:42:55.920Z,34.30
2023-05-22T14:45:22.827Z,36.45
2023-05-22T14:47:52.604Z,38.53
2023-05-22T14:50:20.935Z,39.95
2023-05-22T14:52:49.448Z,42.60
2023-05-22T14:55:17.393Z,41.20
2023-05-22T14:57:44.354Z,38.25
2023-05-22T15:00:12.456Z,42.40
2023-05-22T15:02:40.609Z,41.38
2023-05-22T15:05:08.441Z,41.20
2023-05-22T15:10:06.512Z,40.63
2023-05-22T15:12:33.283Z,44.80
2023-05-22T15:15:00.056Z,42.78
2023-05-22T15:17:26.886Z,41.67
2023-05-22T15:19:53.715Z,43.00
2023-05-22T15:22:20.549Z,42.92
2023-05-22T15:24:48.240Z,45.00
2023-05-22T15:27:15.029Z,42.63
2023-05-22T15:29:41.988Z,46.20
2023-05-22T15:32:09.608Z,43.28
2023-05-22T15:34:36.626Z,45.25
2023-05-22T15:37:03.373Z,37.70
2023-05-22T15:39:30.345Z,43.13
2023-05-22T15:42:05.677Z,45.25
2023-05-22T15:44:33.482Z,45.95
2023-05-22T15:47:00.435Z,47.63
2023-05-22T15:49:30.169Z,45.47
2023-05-22T15:51:58.668Z,42.72
2023-05-22T15:54:25.815Z,45.25
2023-05-22T15:56:52.638Z,44.92
2023-05-22T15:59:19.522Z,44.60
2023-05-22T16:01:46.537Z,40.20
2023-05-22T16:04:13.419Z,40.65
2023-05-22T16:06:40.321Z,39.58
2023-05-22T16:09:07.422Z,39.88
2023-05-22T16:11:35.279Z,43.03
2023-05-22T16:14:02.147Z,38.72
2023-05-22T16:16:38.089Z,37.00
2023-05-22T16:19:05.092Z,36.75
2023-05-22T16:21:31.961Z,39.63
2023-05-22T16:23:59.538Z,37.22
2023-05-22T16:26:26.920Z,36.33
2023-05-22T16:28:53.738Z,36.15
2023-05-22T16:31:20.734Z,36.55
2023-05-22T16:33:47.621Z,35.72
2023-05-22T16:36:14.465Z,35.97
2023-05-22T16:38:42.089Z,36.60
2023-05-22T16:41:08.982Z,37.58
2023-05-22T16:43:37.709Z,36.70
2023-05-22T16:46:04.694Z,34.67
2023-05-22T16:48:31.624Z,34.90
2023-05-22T16:50:58.447Z,33.38
2023-05-22T16:53:25.488Z,35.22
2023-05-22T16:55:52.366Z,31.90
2023-05-22T16:58:19.548Z,32.42
2023-05-22T17:00:46.521Z,34.88
2023-05-22T17:03:16.708Z,32.42
2023-05-22T17:05:44.148Z,35.60
2023-05-22T17:08:17.138Z,34.35
2023-05-22T17:10:44.475Z,39.50
2023-05-22T17:13:19.806Z,32.60
2023-05-22T17:15:52.987Z,22.92
2023-05-22T17:18:21.041Z,26.25
2023-05-22T17:20:53.845Z,27.70
2023-05-22T17:23:20.867Z,26.90
2023-05-22T17:25:47.947Z,24.13
2023-05-22T17:28:15.334Z,25.25
2023-05-22T17:30:44.317Z,26.73
2023-05-22T17:33:12.206Z,25.88
2023-05-22T17:35:39.165Z,25.83
2023-05-22T17:38:08.425Z,26.15
2023-05-22T17:40:44.696Z,27.38
2023-05-22T17:43:13.435Z,23.70
2023-05-22T17:45:40.374Z,26.77
2023-05-22T17:48:08.757Z,23.75
2023-05-22T17:50:35.682Z,26.48
2023-05-22T17:53:02.759Z,28.88
2023-05-22T17:55:29.637Z,35.05
2023-05-22T17:57:56.546Z,30.70
2023-05-22T18:00:23.473Z,30.02
2023-05-22T18:02:50.692Z,25.70
2023-05-22T18:05:17.613Z,28.80
2023-05-22T18:07:44.414Z,28.85
2023-05-22T18:10:11.457Z,27.40
2023-05-22T18:12:38.702Z,28.95
2023-05-22T18:15:09.380Z,27.33
2023-05-22T18:17:36.525Z,22.48
2023-05-22T18:20:10.310Z,25.60
2023-05-22T18:22:40.996Z,25.17
2023-05-22T18:25:09.045Z,23.10
2023-05-22T18:27:36.445Z,27.45
2023-05-22T18:30:07.635Z,27.65
2023-05-22T18:32:34.599Z,31.33
2023-05-22T18:35:08.133Z,29.25
2023-05-22T18:37:35.127Z,28.35
2023-05-22T18:40:06.670Z,28.45
2023-05-22T18:42:36.965Z,31.45
2023-05-22T18:45:05.561Z,28.80
2023-05-22T18:47:32.693Z,28.42
2023-05-22T18:49:59.730Z,28.75
2023-05-22T18:52:26.656Z,30.33
2023-05-22T18:54:53.568Z,31.77
2023-05-22T18:57:21.686Z,28.55
2023-05-22T18:59:51.053Z,27.48
2023-05-22T19:02:23.117Z,30.83
2023-05-22T19:04:51.163Z,26.77
2023-05-22T19:07:18.377Z,27.70
2023-05-22T19:09:45.348Z,33.97
2023-05-22T19:12:12.181Z,24.50
2023-05-22T19:14:39.360Z,32.72
2023-05-22T19:17:06.371Z,32.65
2023-05-22T19:19:33.597Z,33.85
2023-05-22T19:22:00.873Z,30.63
2023-05-22T19:24:28.435Z,23.70
2023-05-22T19:26:55.213Z,29.52
2023-05-22T19:29:22.010Z,31.98
2023-05-22T19:31:48.829Z,30.08
2023-05-22T19:34:15.733Z,29.80
2023-05-22T19:36:42.749Z,28.55
2023-05-22T19:39:09.594Z,29.60
2023-05-22T19:41:36.368Z,29.80
2023-05-22T19:44:03.169Z,29.08
2023-05-22T19:46:30.095Z,30.42
2023-05-22T19:48:57.940Z,30.30
2023-05-22T19:51:25.070Z,34.90
2023-05-22T19:53:51.958Z,30.60
2023-05-22T19:56:20.485Z,33.03
2023-05-22T19:58:48.167Z,29.17
2023-05-22T20:01:15.070Z,26.08
2023-05-22T20:03:42.882Z,28.00
2023-05-22T20:06:10.085Z,29.70
2023-05-22T20:08:37.708Z,29.02
2023-05-22T20:11:04.652Z,29.00
2023-05-22T20:13:31.680Z,29.60
2023-05-22T20:16:02.735Z,30.15
2023-05-22T20:18:31.849Z,26.23
2023-05-22T20:20:59.966Z,28.02
2023-05-22T20:23:28.189Z,28.13
2023-05-22T20:25:54.943Z,25.67
2023-05-22T20:28:21.750Z,26.55
2023-05-22T20:30:50.317Z,25.80
2023-05-22T20:33:17.824Z,24.15
2023-05-22T20:35:44.917Z,23.90
2023-05-22T20:38:14.231Z,22.48
2023-05-22T20:40:46.514Z,21.50
2023-05-22T20:43:18.558Z,19.90
2023-05-22T20:45:46.754Z,22.83
2023-05-22T20:48:13.994Z,21.70
2023-05-22T20:50:42.582Z,19.50
2023-05-22T20:53:09.671Z,19.80
2023-05-22T20:55:37.562Z,21.65
2023-05-22T20:58:05.007Z,18.77
2023-05-22T21:00:32.170Z,22.38
2023-05-22T21:03:01.158Z,18.30
2023-05-22T21:05:28.284Z,20.25
2023-05-22T21:07:56.048Z,20.30
2023-05-22T21:10:23.951Z,16.98
2023-05-22T21:12:50.859Z,19.83
2023-05-22T21:15:19.993Z,26.45
2023-05-22T21:17:51.618Z,27.13
2023-05-22T21:20:18.574Z,26.90
2023-05-22T21:22:47.689Z,33.47
2023-05-22T21:25:14.528Z,23.67
2023-05-22T21:27:43.012Z,27.90
2023-05-22T21:30:14.392Z,28.08
2023-05-22T21:32:41.429Z,30.65
2023-05-22T21:35:09.085Z,30.20
2023-05-22T21:37:35.943Z,28.88
2023-05-22T21:40:02.782Z,29.00
2023-05-22T21:42:45.074Z,26.58
2023-05-22T21:45:15.248Z,21.13
2023-05-22T21:50:52.280Z,28.85
2023-05-22T21:53:19.106Z,28.52
2023-05-22T21:55:45.947Z,27.67
2023-05-22T21:58:13.666Z,26.92
2023-05-22T22:00:41.224Z,25.38
2023-05-22T22:03:08.508Z,26.90
2023-05-22T22:05:36.366Z,31.17
2023-05-22T22:08:03.247Z,27.63
2023-05-22T22:10:30.053Z,29.83
2023-05-22T22:12:57.049Z,29.67
2023-05-22T22:15:24.044Z,28.98
2023-05-22T22:17:52.240Z,29.85
2023-05-22T22:20:24.705Z,29.90
2023-05-22T22:22:57.246Z,29.67
2023-05-22T22:25:24.811Z,27.83
2023-05-22T22:27:51.738Z,27.08
2023-05-22T22:30:18.575Z,28.08
2023-05-22T22:32:47.490Z,32.75
2023-05-22T22:35:15.926Z,27.65
2023-05-22T22:37:43.046Z,30.38
2023-05-22T22:40:10.388Z,26.63
2023-05-22T22:42:37.247Z,29.95
2023-05-22T22:45:04.543Z,27.02
2023-05-22T22:47:31.456Z,28.05
2023-05-22T22:49:58.504Z,30.20
2023-05-22T22:52:25.503Z,32.60
2023-05-22T22:54:52.446Z,28.02
2023-05-22T22:57:19.272Z,25.75
2023-05-22T22:59:46.093Z,30.52
2023-05-22T23:02:12.915Z,28.17
2023-05-22T23:04:39.957Z,25.83
2023-05-22T23:07:08.358Z,25.83
2023-05-22T23:09:35.260Z,26.80
2023-05-22T23:12:02.531Z,26.73
2023-05-22T23:14:29.348Z,27.85
2023-05-22T23:16:56.757Z,23.10
2023-05-22T23:19:23.992Z,28.33
2023-05-22T23:21:51.901Z,25.48
2023-05-22T23:24:18.681Z,29.65
2023-05-22T23:26:45.516Z,25.92
2023-05-22T23:29:12.527Z,25.85
2023-05-22T23:31:40.393Z,28.50
2023-05-22T23:34:07.393Z,31.80
2023-05-22T23:36:34.141Z,28.85
2023-05-22T23:39:01.156Z,29.70
2023-05-22T23:41:27.915Z,29.90
2023-05-22T23:43:54.761Z,29.65
2023-05-22T23:46:21.622Z,27.52
2023-05-22T23:48:48.746Z,22.35
2023-05-22T23:51:16.832Z,29.13
2023-05-22T23:53:43.659Z,29.70
2023-05-22T23:56:10.828Z,27.40
2023-05-22T23:58:38.234Z,30.50
